createdAt,value
2018-12-23T00:05:45.870Z,1011.85
2018-12-23T00:06:26.333Z,1011.86
2018-12-23T00:07:08.507Z,1011.85
2018-12-23T00:07:48.848Z,1011.8
2018-12-23T00:08:30.278Z,1011.81
2018-12-23T00:09:10.608Z,1011.78
2018-12-23T00:09:51.151Z,1011.82
2018-12-23T00:10:31.585Z,1011.86
2018-12-23T00:11:11.964Z,1011.81
2018-12-23T00:11:52.366Z,1011.87
2018-12-23T00:12:32.834Z,1011.84
2018-12-23T00:13:13.200Z,1011.84
2018-12-23T00:13:53.608Z,1011.89
2018-12-23T00:14:34.188Z,1011.9
2018-12-23T00:15:14.368Z,1011.92
2018-12-23T00:15:54.796Z,1011.92
2018-12-23T00:16:35.235Z,1011.95
2018-12-23T00:17:16.670Z,1011.93
2018-12-23T00:17:57.106Z,1011.98
2018-12-23T00:18:37.525Z,1011.94
2018-12-23T00:19:17.845Z,1011.94
2018-12-23T00:19:58.239Z,1011.95
2018-12-23T00:20:38.636Z,1011.98
2018-12-23T00:21:19.009Z,1011.89
2018-12-23T00:21:59.470Z,1011.96
2018-12-23T00:22:40.277Z,1011.87
2018-12-23T00:23:22.794Z,1011.92
2018-12-23T00:24:03.187Z,1011.91
2018-12-23T00:24:45.440Z,1011.9
2018-12-23T00:25:27.609Z,1011.95
2018-12-23T00:26:09.633Z,1011.97
2018-12-23T00:26:50.045Z,1011.92
2018-12-23T00:27:30.530Z,1011.93
2018-12-23T00:28:11.735Z,1011.91
2018-12-23T00:28:53.923Z,1011.81
2018-12-23T00:29:37.809Z,1011.93
2018-12-23T00:30:18.295Z,1011.93
2018-12-23T00:30:58.820Z,1011.99
2018-12-23T00:31:39.574Z,1011.98
2018-12-23T00:32:20.907Z,1011.97
2018-12-23T00:33:01.245Z,1012
2018-12-23T00:33:41.705Z,1011.99
2018-12-23T00:34:22.317Z,1011.96
2018-12-23T00:35:02.682Z,1011.91
2018-12-23T00:35:43.222Z,1011.98
2018-12-23T00:36:23.541Z,1011.94
2018-12-23T00:37:03.941Z,1011.97
2018-12-23T00:37:44.625Z,1011.99
2018-12-23T00:38:24.975Z,1012
2018-12-23T00:39:05.502Z,1011.97
2018-12-23T00:39:45.958Z,1011.98
2018-12-23T00:40:26.403Z,1011.94
2018-12-23T00:41:08.670Z,1011.97
2018-12-23T00:41:49.078Z,1011.94
2018-12-23T00:42:29.509Z,1011.98
2018-12-23T00:43:09.823Z,1011.92
2018-12-23T00:43:50.256Z,1011.91
2018-12-23T00:44:32.320Z,1011.9
2018-12-23T00:45:12.720Z,1011.9
2018-12-23T00:45:53.461Z,1011.87
2018-12-23T00:46:36.047Z,1011.82
2018-12-23T00:47:17.346Z,1011.77
2018-12-23T00:47:57.776Z,1011.79
2018-12-23T00:48:38.122Z,1011.75
2018-12-23T07:49:07.039Z,1011.57
2018-12-23T07:49:47.361Z,1011.57
2018-12-23T07:50:27.703Z,1011.56
2018-12-23T07:51:08.106Z,1011.54
2018-12-23T07:51:48.624Z,1011.52
2018-12-23T07:52:29.291Z,1011.56
2018-12-23T07:53:09.679Z,1011.57
2018-12-23T07:53:50.032Z,1011.54
2018-12-23T07:54:30.568Z,1011.51
2018-12-23T07:55:11.079Z,1011.48
2018-12-23T07:55:51.965Z,1011.47
2018-12-23T07:56:32.501Z,1011.44
2018-12-23T07:57:12.780Z,1011.4
2018-12-23T07:57:54.110Z,1011.41
2018-12-23T07:58:37.456Z,1011.42
2018-12-23T07:59:18.124Z,1011.41
2018-12-23T07:59:58.543Z,1011.47
2018-12-23T08:00:38.963Z,1011.47
2018-12-23T08:01:19.344Z,1011.45
2018-12-23T08:01:59.714Z,1011.44
2018-12-23T08:02:41.526Z,1011.47
2018-12-23T08:03:21.926Z,1011.46
2018-12-23T08:04:02.315Z,1011.49
2018-12-23T08:04:43.145Z,1011.5
2018-12-23T08:05:23.699Z,1011.46
2018-12-23T08:06:04.207Z,1011.51
2018-12-23T08:06:44.478Z,1011.51
2018-12-23T08:07:26.248Z,1011.51
2018-12-23T08:08:06.612Z,1011.51
2018-12-23T08:08:47.049Z,1011.48
2018-12-23T08:09:27.426Z,1011.49
2018-12-23T08:10:08.303Z,1011.5
2018-12-23T08:10:48.705Z,1011.51
2018-12-23T08:11:29.172Z,1011.49
2018-12-23T08:12:09.912Z,1011.5
2018-12-23T08:12:50.003Z,1011.45
2018-12-23T08:13:33.479Z,1011.46
2018-12-23T08:14:15.571Z,1011.47
2018-12-23T08:14:55.978Z,1011.47
2018-12-23T08:15:37.255Z,1011.51
2018-12-23T08:16:17.623Z,1011.51
2018-12-23T08:16:59.344Z,1011.51
2018-12-23T08:17:39.723Z,1011.52
2018-12-23T08:18:20.129Z,1011.52
2018-12-23T08:19:00.533Z,1011.51
2018-12-23T08:19:40.987Z,1011.48
2018-12-23T08:20:21.546Z,1011.5
2018-12-23T08:21:02.198Z,1011.52
2018-12-23T08:21:42.542Z,1011.49
2018-12-23T08:22:22.980Z,1011.47
2018-12-23T08:23:03.554Z,1011.47
2018-12-23T08:23:43.975Z,1011.49
2018-12-23T08:24:24.346Z,1011.48
2018-12-23T08:25:04.943Z,1011.48
2018-12-23T08:25:45.384Z,1011.47
2018-12-23T08:26:27.158Z,1011.5
2018-12-23T08:27:07.920Z,1011.53
2018-12-23T08:27:47.959Z,1011.49
2018-12-23T08:28:28.411Z,1011.5
2018-12-23T08:29:08.773Z,1011.5
2018-12-23T08:29:49.149Z,1011.48
2018-12-23T08:30:29.544Z,1011.47
2018-12-23T08:31:09.900Z,1011.49
2018-12-23T08:31:50.387Z,1011.43
2018-12-23T08:32:30.768Z,1011.48
2018-12-23T08:33:11.184Z,1011.47
2018-12-23T08:33:51.581Z,1011.49
2018-12-23T08:34:33.893Z,1011.47
2018-12-23T08:35:14.208Z,1011.42
2018-12-23T08:35:54.575Z,1011.45
2018-12-23T08:36:35.040Z,1011.38
2018-12-23T08:37:17.294Z,1011.42
2018-12-23T08:37:57.720Z,1011.36
2018-12-23T08:38:38.105Z,1011.4
2018-12-23T08:39:18.512Z,1011.42
2018-12-23T08:39:58.952Z,1011.36
2018-12-23T08:40:39.431Z,1011.38
2018-12-23T08:41:19.775Z,1011.37
2018-12-23T08:42:00.248Z,1011.4
2018-12-23T08:42:40.761Z,1011.36
2018-12-23T08:43:21.087Z,1011.35
2018-12-23T08:44:01.446Z,1011.35
2018-12-23T08:44:41.934Z,1011.35
2018-12-23T08:45:22.321Z,1011.35
2018-12-23T08:46:02.726Z,1011.33
2018-12-23T08:46:43.562Z,1011.33
2018-12-23T08:47:23.663Z,1011.32
2018-12-23T08:48:04.054Z,1011.34
2018-12-23T08:48:44.450Z,1011.29
2018-12-23T08:49:24.862Z,1011.33
2018-12-23T08:50:05.424Z,1011.33
2018-12-23T08:50:45.834Z,1011.36
2018-12-23T08:51:28.254Z,1011.35
2018-12-23T08:52:08.588Z,1011.33
2018-12-23T08:52:48.963Z,1011.29
2018-12-23T08:53:29.409Z,1011.31
2018-12-23T08:54:09.833Z,1011.34
2018-12-23T08:54:50.272Z,1011.32
2018-12-23T08:55:30.632Z,1011.3
2018-12-23T08:56:12.410Z,1011.29
2018-12-23T08:56:51.851Z,1011.34
2018-12-23T08:57:32.346Z,1011.27
2018-12-23T08:58:15.077Z,1011.29
2018-12-23T08:58:55.635Z,1011.29
2018-12-23T08:59:35.993Z,1011.25
2018-12-23T09:00:16.591Z,1011.25
2018-12-23T09:00:57.058Z,1011.28
2018-12-23T09:01:37.518Z,1011.28
2018-12-23T09:02:17.895Z,1011.26
2018-12-23T09:02:58.286Z,1011.25
2018-12-23T09:03:38.691Z,1011.26
2018-12-23T09:04:19.105Z,1011.27
2018-12-23T09:05:01.904Z,1011.26
2018-12-23T09:05:42.222Z,1011.26
2018-12-23T09:06:23.050Z,1011.23
2018-12-23T09:07:03.445Z,1011.21
2018-12-23T09:07:43.918Z,1011.21
2018-12-23T09:08:24.702Z,1011.23
2018-12-23T09:09:07.946Z,1011.18
2018-12-23T09:09:48.383Z,1011.19
2018-12-23T09:10:29.697Z,1011.17
2018-12-23T09:11:09.971Z,1011.17
2018-12-23T09:11:50.321Z,1011.16
2018-12-23T09:12:30.962Z,1011.15
2018-12-23T09:13:11.215Z,1011.13
2018-12-23T09:13:51.628Z,1011.14
2018-12-23T09:14:32.003Z,1011.13
2018-12-23T09:15:12.445Z,1011.12
2018-12-23T09:15:52.796Z,1011.13
2018-12-23T09:16:33.234Z,1011.09
2018-12-23T09:17:13.595Z,1011.08
2018-12-23T09:17:54.035Z,1011.1
2018-12-23T09:18:34.701Z,1011.11
2018-12-23T09:19:15.134Z,1011.08
2018-12-23T09:19:55.446Z,1011.13
2018-12-23T09:20:36.006Z,1011.08
2018-12-23T09:21:16.359Z,1011.1
2018-12-23T09:21:57.122Z,1011.14
2018-12-23T09:22:37.425Z,1011.1
2018-12-23T09:23:18.614Z,1011.08
2018-12-23T09:23:59.026Z,1011.07
2018-12-23T09:24:39.412Z,1011.05
2018-12-23T09:25:19.827Z,1011.11
2018-12-23T09:26:00.655Z,1011.06
2018-12-23T09:26:41.261Z,1011.07
2018-12-23T09:27:21.619Z,1011.05
2018-12-23T09:28:02.075Z,1011.04
2018-12-23T09:28:42.486Z,1011.07
2018-12-23T09:29:22.840Z,1011.03
2018-12-23T09:30:03.540Z,1011.06
2018-12-23T09:30:43.801Z,1011.03
2018-12-23T09:31:24.234Z,1011.04
2018-12-23T09:32:04.656Z,1011.05
2018-12-23T09:32:44.993Z,1011.01
2018-12-23T09:33:25.338Z,1011.02
2018-12-23T09:34:05.765Z,1011.02
2018-12-23T09:34:46.297Z,1010.99
2018-12-23T09:35:26.589Z,1010.99
2018-12-23T09:36:06.947Z,1010.98
2018-12-23T09:36:47.821Z,1010.96
2018-12-23T09:37:27.866Z,1010.97
2018-12-23T09:38:08.176Z,1010.99
2018-12-23T09:38:48.531Z,1010.95
2018-12-23T09:39:29.027Z,1010.96
2018-12-23T09:40:09.348Z,1010.94
2018-12-23T09:40:49.872Z,1010.94
2018-12-23T09:41:30.319Z,1010.97
2018-12-23T09:42:10.672Z,1010.98
2018-12-23T09:42:51.269Z,1011.02
2018-12-23T09:43:31.550Z,1010.98
2018-12-23T09:44:12.081Z,1011.04
2018-12-23T09:44:52.575Z,1011.04
2018-12-23T09:45:33.097Z,1011.03
2018-12-23T09:46:13.491Z,1011.02
2018-12-23T09:46:53.840Z,1010.96
2018-12-23T09:47:34.266Z,1010.99
2018-12-23T09:48:14.708Z,1010.99
2018-12-23T09:48:55.056Z,1011
2018-12-23T09:49:35.429Z,1010.94
2018-12-23T09:50:15.924Z,1010.94
2018-12-23T09:50:56.316Z,1010.95
2018-12-23T09:51:36.702Z,1010.92
2018-12-23T09:52:17.482Z,1010.94
2018-12-23T09:52:57.527Z,1010.97
2018-12-23T09:53:37.980Z,1010.91
2018-12-23T09:54:18.269Z,1010.93
2018-12-23T09:54:58.648Z,1010.97
2018-12-23T09:55:39.104Z,1010.92
2018-12-23T09:56:19.477Z,1010.88
2018-12-23T09:56:59.825Z,1010.88
2018-12-23T09:57:40.248Z,1010.87
2018-12-23T09:58:22.458Z,1010.9
2018-12-23T09:59:02.759Z,1010.85
2018-12-23T09:59:43.200Z,1010.85
2018-12-23T10:00:23.713Z,1010.85
2018-12-23T10:01:04.042Z,1010.83
2018-12-23T10:01:44.489Z,1010.85
2018-12-23T10:02:24.843Z,1010.85
2018-12-23T10:03:05.263Z,1010.86
2018-12-23T10:03:45.630Z,1010.81
2018-12-23T10:04:26.072Z,1010.79
2018-12-23T10:05:06.551Z,1010.79
2018-12-23T10:05:46.930Z,1010.77
2018-12-23T10:06:27.262Z,1010.74
2018-12-23T10:07:07.684Z,1010.74
2018-12-23T10:07:48.095Z,1010.66
2018-12-23T10:08:28.483Z,1010.69
2018-12-23T10:09:08.892Z,1010.67
2018-12-23T11:21:45.320Z,1009.47
2018-12-23T12:40:59.385Z,1007.8
2018-12-23T12:41:39.702Z,1007.83
2018-12-23T12:42:20.094Z,1007.79
2018-12-23T12:43:00.503Z,1007.79
2018-12-23T12:43:40.936Z,1007.76
2018-12-23T12:44:21.340Z,1007.76
2018-12-23T12:45:01.729Z,1007.73
2018-12-23T12:45:42.133Z,1007.74
2018-12-23T12:46:24.500Z,1007.77
2018-12-23T12:47:02.913Z,1007.72
2018-12-23T12:47:43.333Z,1007.69
2018-12-23T12:48:23.824Z,1007.68
2018-12-23T12:49:04.177Z,1007.65
2018-12-23T12:49:44.597Z,1007.58
2018-12-23T12:50:25.016Z,1007.57
2018-12-23T12:51:05.436Z,1007.54
2018-12-23T12:51:45.826Z,1007.55
2018-12-23T12:52:26.225Z,1007.49
2018-12-23T12:53:06.668Z,1007.44
2018-12-23T12:53:47.080Z,1007.42
2018-12-23T12:54:27.493Z,1007.35
2018-12-23T12:55:07.904Z,1007.34
2018-12-23T12:55:48.305Z,1007.35
2018-12-23T12:56:28.720Z,1007.34
2018-12-23T12:57:09.134Z,1007.33
2018-12-23T12:57:49.549Z,1007.3
2018-12-23T12:58:29.966Z,1007.31
2018-12-23T12:59:10.374Z,1007.33
2018-12-23T12:59:50.791Z,1007.36
2018-12-23T13:00:31.209Z,1007.3
2018-12-23T13:01:11.657Z,1007.34
2018-12-23T13:01:52.072Z,1007.33
2018-12-23T13:02:32.471Z,1007.31
2018-12-23T13:03:12.902Z,1007.26
2018-12-23T13:03:53.300Z,1007.27
2018-12-23T13:04:33.706Z,1007.24
2018-12-23T13:05:14.107Z,1007.21
2018-12-23T13:05:54.518Z,1007.21
2018-12-23T13:06:34.932Z,1007.17
2018-12-23T13:07:15.371Z,1007.15
2018-12-23T13:07:55.758Z,1007.15
2018-12-23T13:08:36.215Z,1007.14
2018-12-23T13:09:16.564Z,1007.12
2018-12-23T13:09:56.957Z,1007.09
2018-12-23T13:10:37.365Z,1007.1
2018-12-23T13:11:17.767Z,1007.1
2018-12-23T13:11:58.205Z,1007.1
2018-12-23T13:12:38.612Z,1007.05
2018-12-23T13:13:19.033Z,1007.03
2018-12-23T13:13:59.471Z,1007
2018-12-23T13:14:39.877Z,1006.99
2018-12-23T13:15:20.285Z,1006.96
2018-12-23T13:16:00.696Z,1006.98
2018-12-23T13:16:41.134Z,1006.93
2018-12-23T13:17:21.527Z,1006.94
2018-12-23T13:18:01.894Z,1006.96
2018-12-23T13:18:42.288Z,1006.93
2018-12-23T13:19:22.651Z,1006.94
2018-12-23T13:20:03.030Z,1006.91
2018-12-23T13:20:43.437Z,1006.88
2018-12-23T13:21:23.857Z,1006.9
2018-12-23T13:22:04.217Z,1006.86
2018-12-23T13:22:44.604Z,1006.87
2018-12-23T13:23:25.008Z,1006.87
2018-12-23T13:24:05.469Z,1006.89
2018-12-23T13:24:45.846Z,1006.88
2018-12-23T13:25:26.238Z,1006.88
2018-12-23T13:26:06.623Z,1006.87
2018-12-23T13:26:47.010Z,1006.86
2018-12-23T13:27:27.401Z,1006.83
2018-12-23T13:28:07.833Z,1006.75
2018-12-23T13:28:48.208Z,1006.72
2018-12-23T13:29:28.569Z,1006.73
2018-12-23T19:26:28.769Z,1002.73
2018-12-23T19:27:13.714Z,1002.76
2018-12-23T19:27:54.127Z,1002.69
2018-12-23T19:28:36.786Z,1002.73
2018-12-23T19:29:16.590Z,1002.71
2018-12-23T19:29:58.798Z,1002.7
2018-12-23T19:30:40.125Z,1002.79
2018-12-23T19:31:20.528Z,1002.73
2018-12-23T19:32:00.918Z,1002.72
2018-12-23T19:32:41.324Z,1002.62
2018-12-23T19:33:21.719Z,1002.7
2018-12-23T19:34:02.106Z,1002.67
2018-12-23T19:34:42.537Z,1002.63
2018-12-23T19:35:22.927Z,1002.68
2018-12-23T19:36:04.259Z,1002.61
2018-12-23T19:36:46.448Z,1002.71
2018-12-23T19:37:26.862Z,1002.68
2018-12-23T19:38:07.236Z,1002.66
2018-12-23T19:38:49.425Z,1002.72
2018-12-23T19:39:29.869Z,1002.6
2018-12-23T19:40:10.208Z,1002.65
2018-12-23T20:10:59.076Z,1002.63
2018-12-23T20:11:36.900Z,1002.7
2018-12-23T20:12:18.233Z,1002.61
2018-12-23T20:12:58.656Z,1002.57
2018-12-23T20:13:39.032Z,1002.6
2018-12-23T20:14:19.427Z,1002.61
2018-12-23T20:15:00.096Z,1002.61
2018-12-23T20:15:40.450Z,1002.64
2018-12-23T20:16:20.823Z,1002.53
2018-12-23T20:17:01.229Z,1002.65
2018-12-23T20:17:41.643Z,1002.65
2018-12-23T20:18:22.069Z,1002.68
2018-12-23T20:19:02.408Z,1002.69
2018-12-23T20:19:43.241Z,1002.77
2018-12-23T20:20:23.702Z,1002.74
2018-12-23T20:21:04.043Z,1002.7
2018-12-23T20:21:45.996Z,1002.76
2018-12-23T20:22:26.399Z,1002.74
2018-12-23T20:23:07.775Z,1002.72
2018-12-23T20:23:48.170Z,1002.74
2018-12-23T20:24:28.615Z,1002.74
2018-12-23T20:25:08.948Z,1002.68
2018-12-23T20:25:49.358Z,1002.71
2018-12-23T20:26:29.790Z,1002.75
2018-12-23T20:27:10.224Z,1002.74
2018-12-23T20:27:50.629Z,1002.71
2018-12-23T20:28:31.069Z,1002.76
2018-12-23T20:29:11.473Z,1002.75
2018-12-23T20:29:51.907Z,1002.74
2018-12-23T20:30:32.330Z,1002.79
2018-12-23T20:31:12.728Z,1002.77
2018-12-23T20:31:53.150Z,1002.77
2018-12-23T20:32:33.569Z,1002.76
2018-12-23T20:33:13.963Z,1002.69
2018-12-23T20:33:54.374Z,1002.77
2018-12-23T20:34:34.783Z,1002.72
2018-12-23T20:35:15.192Z,1002.75
2018-12-23T20:35:57.485Z,1002.75
2018-12-23T20:36:39.163Z,1002.78
2018-12-23T20:37:19.575Z,1002.75
2018-12-23T20:37:59.956Z,1002.79
2018-12-23T20:38:40.333Z,1002.73
2018-12-23T20:39:20.732Z,1002.75
2018-12-23T20:40:02.055Z,1002.74
2018-12-23T20:40:43.415Z,1002.68
2018-12-23T20:41:24.354Z,1002.66
2018-12-23T20:42:06.364Z,1002.69
2018-12-23T20:42:48.355Z,1002.71
2018-12-23T20:43:28.768Z,1002.69
2018-12-23T20:44:09.174Z,1002.7
2018-12-23T20:44:49.576Z,1002.77
2018-12-23T20:45:29.993Z,1002.79
2018-12-23T20:46:10.406Z,1002.72
2018-12-23T20:46:50.806Z,1002.73
2018-12-23T20:47:37.862Z,1002.77
2018-12-23T20:48:11.708Z,1002.8
2018-12-23T20:48:52.057Z,1002.81
2018-12-23T20:49:32.494Z,1002.74
2018-12-23T20:50:13.548Z,1002.78
2018-12-23T20:50:53.922Z,1002.84
2018-12-23T20:51:35.298Z,1002.82
2018-12-23T20:52:15.737Z,1002.76
2018-12-23T20:52:56.175Z,1002.8
2018-12-23T20:53:37.499Z,1002.8
2018-12-23T20:54:17.924Z,1002.82
2018-12-23T20:54:59.977Z,1002.82
2018-12-23T20:55:40.416Z,1002.83
2018-12-23T20:56:20.863Z,1002.77
2018-12-23T20:57:01.157Z,1002.88
2018-12-23T20:57:41.606Z,1002.88
2018-12-23T20:58:21.933Z,1002.75
2018-12-23T20:59:02.382Z,1002.75
2018-12-23T20:59:42.790Z,1002.7
2018-12-23T21:00:23.146Z,1002.8
2018-12-23T21:01:03.581Z,1002.75
2018-12-23T21:01:45.671Z,1002.63
2018-12-23T21:02:26.103Z,1002.7
2018-12-23T21:03:06.500Z,1002.75
2018-12-23T21:03:46.931Z,1002.75
2018-12-23T21:04:27.300Z,1002.69
2018-12-23T21:05:07.884Z,1002.75
2018-12-23T21:05:48.068Z,1002.69
2018-12-23T21:06:28.470Z,1002.71
2018-12-23T21:07:09.793Z,1002.71
2018-12-23T21:07:50.166Z,1002.66
2018-12-23T21:08:31.372Z,1002.68
2018-12-23T21:09:11.734Z,1002.68
2018-12-23T21:09:52.144Z,1002.72
2018-12-23T21:10:32.649Z,1002.7
2018-12-23T21:11:16.042Z,1002.73
2018-12-23T21:11:55.643Z,1002.71
2018-12-23T21:12:36.059Z,1002.73
2018-12-23T21:13:16.464Z,1002.75
2018-12-23T21:13:57.623Z,1002.67
2018-12-23T21:14:38.018Z,1002.73
2018-12-23T21:15:18.460Z,1002.77
2018-12-23T21:15:58.839Z,1002.82
2018-12-23T21:16:40.471Z,1002.73
2018-12-23T21:17:22.722Z,1002.74
2018-12-23T21:18:03.092Z,1002.7
2018-12-23T21:18:43.464Z,1002.69
2018-12-23T21:19:23.859Z,1002.74
2018-12-23T21:20:04.273Z,1002.78
2018-12-23T21:20:44.681Z,1002.83
2018-12-23T21:21:26.025Z,1002.82
2018-12-23T21:22:06.453Z,1002.89
2018-12-23T21:22:47.760Z,1002.91
2018-12-23T21:23:28.254Z,1002.93
2018-12-23T21:24:08.706Z,1002.94
2018-12-23T21:24:50.870Z,1003.03
2018-12-23T21:25:32.865Z,1003.02
2018-12-23T21:26:13.319Z,1002.97
2018-12-23T21:26:53.783Z,1002.94
2018-12-23T21:27:35.943Z,1003.13
2018-12-23T21:28:17.844Z,1003.21
2018-12-23T21:28:58.296Z,1003.24
2018-12-23T21:29:42.386Z,1003.2
2018-12-23T21:30:22.760Z,1003.22
2018-12-23T21:31:03.176Z,1003.18
2018-12-23T21:31:43.543Z,1003.19
2018-12-23T21:32:24.001Z,1003.1
2018-12-23T21:33:04.423Z,1003.01
2018-12-23T21:33:45.771Z,1003.13
2018-12-23T21:34:26.278Z,1003.27
2018-12-23T21:35:06.693Z,1003.27
2018-12-23T21:35:47.116Z,1003.31
2018-12-23T21:36:27.494Z,1003.32
2018-12-23T21:37:07.926Z,1003.35
2018-12-23T21:37:50.538Z,1003.39
2018-12-23T21:38:30.455Z,1003.42
2018-12-23T21:39:11.114Z,1003.44
2018-12-23T21:39:51.443Z,1003.4
2018-12-23T21:40:31.836Z,1003.41
2018-12-23T21:41:12.254Z,1003.39
2018-12-23T21:41:52.645Z,1003.35
2018-12-23T21:42:33.004Z,1003.34
2018-12-23T21:43:13.422Z,1003.33
2018-12-23T21:43:53.784Z,1003.35
2018-12-23T21:44:34.407Z,1003.4
2018-12-23T21:45:15.642Z,1003.41
2018-12-23T21:45:57.031Z,1003.44
2018-12-23T21:46:37.446Z,1003.43
2018-12-23T21:47:17.902Z,1003.43
2018-12-23T21:47:58.279Z,1003.41
2018-12-23T21:48:39.634Z,1003.47
2018-12-23T21:49:20.034Z,1003.47
2018-12-23T21:50:00.624Z,1003.52
2018-12-23T21:50:41.188Z,1003.46
2018-12-23T21:51:21.524Z,1003.59
2018-12-23T21:52:02.010Z,1003.68
2018-12-23T21:52:42.362Z,1003.74
2018-12-23T21:53:22.758Z,1003.82
2018-12-23T21:54:04.326Z,1003.79
2018-12-23T21:54:45.595Z,1003.95
2018-12-23T21:55:25.983Z,1003.98
2018-12-23T21:56:06.410Z,1004.05
2018-12-23T21:56:46.816Z,1004.08
2018-12-23T21:57:27.195Z,1004.11
2018-12-23T21:58:07.626Z,1004.09
2018-12-23T21:58:48.021Z,1004.15
2018-12-23T21:59:28.441Z,1004.1
2018-12-23T22:00:08.816Z,1004.19
2018-12-23T22:00:49.245Z,1004.34
2018-12-23T22:01:29.555Z,1004.36
2018-12-23T22:02:10.067Z,1004.39
2018-12-23T22:02:50.346Z,1004.38
2018-12-23T22:03:30.759Z,1004.44
2018-12-23T22:04:11.128Z,1004.43
2018-12-23T22:04:51.668Z,1004.47
2018-12-23T22:05:32.131Z,1004.48
2018-12-23T22:06:12.575Z,1004.53
2018-12-23T22:06:54.876Z,1004.54
2018-12-23T22:07:35.344Z,1004.49
2018-12-23T22:08:15.695Z,1004.4
2018-12-23T22:08:56.410Z,1004.47
2018-12-23T22:09:38.393Z,1004.57
2018-12-23T22:10:18.765Z,1004.64
2018-12-23T22:11:01.084Z,1004.75
2018-12-23T22:11:41.435Z,1004.75
2018-12-23T22:12:21.820Z,1004.86
2018-12-23T22:13:02.176Z,1004.9
2018-12-23T22:13:42.602Z,1005
2018-12-23T22:14:23.029Z,1005.06
2018-12-23T22:15:03.422Z,1005.07
2018-12-23T22:15:43.757Z,1005.1
2018-12-23T22:16:24.200Z,1005.17
2018-12-23T22:17:04.634Z,1005.18
2018-12-23T22:17:45.111Z,1005.23
2018-12-23T22:18:25.353Z,1005.25
2018-12-23T22:19:05.762Z,1005.18
2018-12-23T22:19:46.556Z,1005.25
2018-12-23T22:20:26.838Z,1005.25
2018-12-23T22:21:07.214Z,1005.24
2018-12-23T22:21:47.608Z,1005.3
2018-12-23T22:22:27.993Z,1005.36
2018-12-23T22:23:08.393Z,1005.3
2018-12-23T22:23:48.805Z,1005.37
2018-12-23T22:24:29.173Z,1005.4
2018-12-23T22:25:09.561Z,1005.51
2018-12-23T22:25:49.961Z,1005.57
2018-12-23T23:41:36.975Z,1007.56
2018-12-23T23:42:17.322Z,1007.55
2018-12-23T23:42:57.786Z,1007.59
2018-12-23T23:43:38.153Z,1007.59
2018-12-23T23:44:18.593Z,1007.6
2018-12-23T23:44:59.947Z,1007.56
2018-12-23T23:45:40.384Z,1007.57
2018-12-23T23:46:20.803Z,1007.55
2018-12-23T23:47:01.319Z,1007.59
2018-12-23T23:47:46.282Z,1007.67
2018-12-23T23:48:28.479Z,1007.61
2018-12-23T23:49:08.853Z,1007.69
2018-12-23T23:49:50.780Z,1007.67
2018-12-23T23:50:32.143Z,1007.69
2018-12-23T23:51:16.471Z,1007.66
2018-12-23T23:51:56.992Z,1007.67
2018-12-23T23:52:37.287Z,1007.73
2018-12-23T23:53:17.668Z,1007.72
2018-12-23T23:53:58.207Z,1007.73
2018-12-23T23:54:38.581Z,1007.75
2018-12-23T23:55:19.000Z,1007.75
2018-12-23T23:55:59.418Z,1007.8
2018-12-23T23:56:39.850Z,1007.82
2018-12-23T23:57:20.258Z,1007.83
2018-12-23T23:58:00.687Z,1007.87
2018-12-23T23:58:41.091Z,1007.85
2018-12-23T23:59:22.419Z,1007.82
